Terminal Aerodrome Forecast
Issued by NWS

Home | Current Version | Previous Version | Text Only | Print | Product List | Glossary On
Versions: 1 2 3 4 5 6 7 8 9 10 11 12 13
000
FTUS46 KSEW 261124
TAFHQM
TAF
KHQM 261124Z 2612/2712 07006KT P6SM SCT250
     FM261700 23009KT P6SM SCT250
     FM270200 23009KT 4SM BR OVC010=

USA.gov is the U.S. government's official web portal to all federal, state and local government web resources and services.